Time;durP1;ratioP1;P1;durP2;ratioP2;P2;SDS_P1;SDS_P2;PMS_P1;PMS_P2;Temp;Humidity;BMP_temperature;BMP_pressure;BME280_temperature;BME280_humidity;BME280_pressure;Samples;Min_cycle;Max_cycle;Signal;HPM_P1;HPM_P2
2023/08/24 00:00:59;;;;;;;0.10;0.10;;;;;;;;;;6307461;22;20003;-91
2023/08/24 00:03:26;;;;;;;0.10;0.10;;;;;;;;;;6282289;22;20023;-90
2023/08/24 00:05:52;;;;;;;0.20;0.20;;;;;;;;;;6281193;22;20335;-89
2023/08/24 00:08:26;;;;;;;0.13;0.13;;;;;;;;;;6282665;22;20011;-89
2023/08/24 00:10:53;;;;;;;0.20;0.20;;;;;;;;;;6282079;22;20015;-92
2023/08/24 00:13:20;;;;;;;0.20;0.20;;;;;;;;;;6307073;22;20026;-90
2023/08/24 00:15:46;;;;;;;0.13;0.13;;;;;;;;;;6281728;22;20051;-91
2023/08/24 00:18:12;;;;;;;0.20;0.20;;;;;;;;;;6282223;22;20015;-91
2023/08/24 00:20:40;;;;;;;0.20;0.20;;;;;;;;;;6280673;22;20003;-91
2023/08/24 00:23:11;;;;;;;0.10;0.10;;;;;;;;;;6330690;22;20041;-90
2023/08/24 00:25:37;;;;;;;0.30;0.30;;;;;;;;;;6254932;22;20022;-91
2023/08/24 00:28:03;;;;;;;0.10;0.10;;;;;;;;;;6279159;22;20019;-91
2023/08/24 00:30:34;;;;;;;0.20;0.20;;;;;;;;;;6281624;22;20071;-90
2023/08/24 00:33:07;;;;;;;0.17;0.17;;;;;;;;;;6280750;22;20015;-91
2023/08/24 00:35:33;;;;;;;0.30;0.30;;;;;;;;;;6256410;22;19999;-90
2023/08/24 00:37:59;;;;;;;0.20;0.20;;;;;;;;;;6281871;22;20067;-91
2023/08/24 00:40:27;;;;;;;0.10;0.10;;;;;;;;;;6255810;22;20004;-91
2023/08/24 00:43:01;;;;;;;0.15;0.15;;;;;;;;;;6309771;22;20020;-91
2023/08/24 00:45:27;;;;;;;0.20;0.20;;;;;;;;;;6281108;22;20023;-91
2023/08/24 00:47:53;;;;;;;0.20;0.20;;;;;;;;;;6307343;22;20026;-91
2023/08/24 00:50:34;;;;;;;0.22;0.22;;;;;;;;;;6278742;22;20020;-90
2023/08/24 00:53:01;;;;;;;0.25;0.25;;;;;;;;;;6306017;22;20034;-90
2023/08/24 00:55:27;;;;;;;0.30;0.30;;;;;;;;;;6279311;22;20098;-88
2023/08/24 00:57:54;;;;;;;0.10;0.10;;;;;;;;;;6280604;22;20023;-90
2023/08/24 01:00:23;;;;;;;0.30;0.30;;;;;;;;;;6279333;22;20019;-90
2023/08/24 01:02:49;;;;;;;0.30;0.30;;;;;;;;;;6280557;22;19999;-90
2023/08/24 01:05:17;;;;;;;0.10;0.10;;;;;;;;;;6279003;22;20041;-91
2023/08/24 01:07:43;;;;;;;0.20;0.20;;;;;;;;;;6279923;22;20006;-93
2023/08/24 01:10:15;;;;;;;0.25;0.25;;;;;;;;;;6278611;22;20067;-90
2023/08/24 01:12:42;;;;;;;0.20;0.20;;;;;;;;;;6305189;22;20045;-90
2023/08/24 01:15:28;;;;;;;0.20;0.20;;;;;;;;;;6279808;22;20038;-88
2023/08/24 01:17:56;;;;;;;0.10;0.10;;;;;;;;;;6280291;22;19991;-90
2023/08/24 01:20:24;;;;;;;0.20;0.20;;;;;;;;;;6278262;22;20019;-90
2023/08/24 01:23:10;;;;;;;0.28;0.28;;;;;;;;;;6277342;22;20023;-90
2023/08/24 01:26:03;;;;;;;0.30;0.30;;;;;;;;;;6227573;22;20019;-91
2023/08/24 01:28:30;;;;;;;0.22;0.22;;;;;;;;;;6280901;22;20015;-90
2023/08/24 01:30:58;;;;;;;0.30;0.30;;;;;;;;;;6280760;22;20019;-91
2023/08/24 01:33:24;;;;;;;0.20;0.20;;;;;;;;;;6280014;22;20019;-91
2023/08/24 01:36:10;;;;;;;0.17;0.17;;;;;;;;;;6304275;22;20023;-91
2023/08/24 01:38:38;;;;;;;0.20;0.20;;;;;;;;;;6280208;22;20095;-90
2023/08/24 01:41:07;;;;;;;0.28;0.28;;;;;;;;;;6281340;22;20016;-90
2023/08/24 01:43:44;;;;;;;0.20;0.20;;;;;;;;;;6280221;22;20019;-90
2023/08/24 01:46:12;;;;;;;0.20;0.20;;;;;;;;;;6278635;22;20020;-90
2023/08/24 01:48:39;;;;;;;0.20;0.20;;;;;;;;;;6254522;22;20021;-90
2023/08/24 01:51:07;;;;;;;0.35;0.35;;;;;;;;;;6242492;22;20921;-90
2023/08/24 01:53:36;;;;;;;0.30;0.30;;;;;;;;;;6193240;23;20050;-90
2023/08/24 01:56:17;;;;;;;0.10;0.10;;;;;;;;;;6219208;23;20024;-90
2023/08/24 01:58:43;;;;;;;0.20;0.20;;;;;;;;;;6219338;23;20051;-91
2023/08/24 02:01:17;;;;;;;0.20;0.20;;;;;;;;;;6220342;23;20059;-92
2023/08/24 02:03:43;;;;;;;0.25;0.25;;;;;;;;;;6218892;23;20020;-91
2023/08/24 02:06:13;;;;;;;0.25;0.25;;;;;;;;;;6219430;23;20013;-92
2023/08/24 02:08:39;;;;;;;0.20;0.20;;;;;;;;;;6245255;22;20061;-90
2023/08/24 02:11:05;;;;;;;0.20;0.20;;;;;;;;;;6219489;23;20062;-90
2023/08/24 02:13:31;;;;;;;0.30;0.30;;;;;;;;;;6218890;23;20028;-91
2023/08/24 02:16:06;;;;;;;0.20;0.20;;;;;;;;;;6220588;23;20020;-90
2023/08/24 02:18:33;;;;;;;0.20;0.20;;;;;;;;;;6196102;23;20024;-91
2023/08/24 02:20:59;;;;;;;0.15;0.15;;;;;;;;;;6218759;23;20039;-91
2023/08/24 02:23:26;;;;;;;0.20;0.20;;;;;;;;;;6244122;22;20020;-91
2023/08/24 02:28:28;;;;;;;0.10;0.10;;;;;;;;;;6261665;22;20521;-92
2023/08/24 02:30:54;;;;;;;0.20;0.20;;;;;;;;;;6213760;23;20016;-90
2023/08/24 02:33:30;;;;;;;0.17;0.17;;;;;;;;;;6218560;23;20012;-89
2023/08/24 02:35:56;;;;;;;0.20;0.20;;;;;;;;;;6216502;23;20020;-91
2023/08/24 02:38:22;;;;;;;0.20;0.20;;;;;;;;;;6214094;23;20022;-89
2023/08/24 02:40:48;;;;;;;0.28;0.28;;;;;;;;;;6218878;23;20068;-92
2023/08/24 02:43:20;;;;;;;0.10;0.10;;;;;;;;;;6242707;22;20024;-90
2023/08/24 02:45:47;;;;;;;0.30;0.30;;;;;;;;;;6214386;23;20319;-91
2023/08/24 02:48:18;;;;;;;0.10;0.10;;;;;;;;;;6242170;22;20027;-91
2023/08/24 02:50:49;;;;;;;0.25;0.25;;;;;;;;;;6216518;23;20032;-92
2023/08/24 02:53:15;;;;;;;0.30;0.30;;;;;;;;;;6218272;23;20024;-89
2023/08/24 02:56:01;;;;;;;0.10;0.10;;;;;;;;;;6220169;23;20015;-91
2023/08/24 02:58:27;;;;;;;0.10;0.10;;;;;;;;;;6216717;23;20027;-92
2023/08/24 03:00:53;;;;;;;0.20;0.20;;;;;;;;;;6215727;23;20030;-92
2023/08/24 03:03:20;;;;;;;0.10;0.10;;;;;;;;;;6244445;23;20028;-91
2023/08/24 03:06:13;;;;;;;0.10;0.10;;;;;;;;;;6220612;23;20043;-91
2023/08/24 03:08:39;;;;;;;0.30;0.30;;;;;;;;;;6215048;22;20024;-90
2023/08/24 03:11:15;;;;;;;0.20;0.20;;;;;;;;;;6221412;23;20011;-91
2023/08/24 03:13:45;;;;;;;0.20;0.20;;;;;;;;;;6222748;22;20015;-91
2023/08/24 03:16:32;;;;;;;0.10;0.10;;;;;;;;;;6247970;22;20016;-92
2023/08/24 03:19:05;;;;;;;0.28;0.28;;;;;;;;;;6221523;23;20020;-92
2023/08/24 03:21:33;;;;;;;0.10;0.10;;;;;;;;;;6222556;23;20009;-90
2023/08/24 03:23:59;;;;;;;0.10;0.10;;;;;;;;;;6220066;23;20027;-90
2023/08/24 03:26:25;;;;;;;0.30;0.30;;;;;;;;;;6221664;23;20012;-92
2023/08/24 03:28:54;;;;;;;0.10;0.10;;;;;;;;;;6215540;23;20031;-91
2023/08/24 03:31:21;;;;;;;0.30;0.30;;;;;;;;;;6214914;22;20019;-91
2023/08/24 03:36:27;;;;;;;0.20;0.20;;;;;;;;;;6250670;22;20008;-90
2023/08/24 03:38:56;;;;;;;0.10;0.10;;;;;;;;;;6198977;22;20011;-91
2023/08/24 03:41:31;;;;;;;0.10;0.10;;;;;;;;;;6217738;22;20042;-92
2023/08/24 03:44:06;;;;;;;0.20;0.20;;;;;;;;;;6249329;23;20016;-90
2023/08/24 03:46:38;;;;;;;0.25;0.25;;;;;;;;;;6269686;23;20047;-91
2023/08/24 03:52:06;;;;;;;0.20;0.20;;;;;;;;;;6244653;23;20042;-91
2023/08/24 03:54:32;;;;;;;0.10;0.10;;;;;;;;;;6221072;23;20078;-91
2023/08/24 03:57:05;;;;;;;0.28;0.28;;;;;;;;;;6269957;23;20035;-90
2023/08/24 03:59:34;;;;;;;0.20;0.20;;;;;;;;;;6219563;23;20042;-90
2023/08/24 04:02:03;;;;;;;0.30;0.30;;;;;;;;;;6217800;23;20004;-91
2023/08/24 04:07:06;;;;;;;0.20;0.20;;;;;;;;;;6269433;22;20107;-92
2023/08/24 04:09:33;;;;;;;0.17;0.17;;;;;;;;;;6244572;22;20004;-92
2023/08/24 04:12:07;;;;;;;0.20;0.20;;;;;;;;;;6221920;23;20004;-92
2023/08/24 04:14:33;;;;;;;0.25;0.25;;;;;;;;;;6219555;23;20023;-93
2023/08/24 04:17:05;;;;;;;0.30;0.30;;;;;;;;;;6221357;23;20039;-92
2023/08/24 04:19:38;;;;;;;0.10;0.10;;;;;;;;;;6220095;23;20020;-92
2023/08/24 04:22:17;;;;;;;0.20;0.20;;;;;;;;;;6221414;23;20015;-89
2023/08/24 04:24:46;;;;;;;0.15;0.15;;;;;;;;;;6217389;23;20024;-92
2023/08/24 04:27:13;;;;;;;0.10;0.10;;;;;;;;;;6221199;23;20011;-91
2023/08/24 04:29:39;;;;;;;0.30;0.30;;;;;;;;;;6221377;23;20047;-91
2023/08/24 04:32:05;;;;;;;0.10;0.10;;;;;;;;;;6221049;23;20027;-91
2023/08/24 04:34:32;;;;;;;0.28;0.28;;;;;;;;;;6219977;23;20016;-92
2023/08/24 04:37:01;;;;;;;0.20;0.20;;;;;;;;;;6220802;23;20027;-92
2023/08/24 04:39:29;;;;;;;0.10;0.10;;;;;;;;;;6208363;22;20028;-90
2023/08/24 04:41:55;;;;;;;0.20;0.20;;;;;;;;;;6188673;23;20021;-91
2023/08/24 04:44:21;;;;;;;0.28;0.28;;;;;;;;;;6191063;23;20027;-91
2023/08/24 04:46:49;;;;;;;0.10;0.10;;;;;;;;;;6189605;23;19998;-91
2023/08/24 04:49:15;;;;;;;0.30;0.30;;;;;;;;;;6189968;23;20016;-92
2023/08/24 04:52:18;;;;;;;0.40;0.40;;;;;;;;;;6211671;23;20008;-91
2023/08/24 04:54:44;;;;;;;0.20;0.20;;;;;;;;;;6189876;23;20005;-92
2023/08/24 04:57:12;;;;;;;0.20;0.20;;;;;;;;;;6189400;23;20040;-90
2023/08/24 04:59:38;;;;;;;0.20;0.20;;;;;;;;;;6189353;23;20030;-91
2023/08/24 05:02:04;;;;;;;0.30;0.30;;;;;;;;;;6189328;23;20044;-89
2023/08/24 05:04:30;;;;;;;0.20;0.20;;;;;;;;;;6189321;23;20023;-91
2023/08/24 05:06:59;;;;;;;0.10;0.10;;;;;;;;;;6191114;23;20021;-91
2023/08/24 05:09:31;;;;;;;0.10;0.10;;;;;;;;;;6240626;23;20020;-89
2023/08/24 05:12:08;;;;;;;0.20;0.20;;;;;;;;;;6190170;23;20031;-91
2023/08/24 05:14:35;;;;;;;0.20;0.20;;;;;;;;;;6190184;23;20007;-91
2023/08/24 05:17:02;;;;;;;0.10;0.10;;;;;;;;;;6190447;23;20025;-92
2023/08/24 05:19:28;;;;;;;0.10;0.10;;;;;;;;;;6189995;23;20020;-90
2023/08/24 05:21:55;;;;;;;0.17;0.17;;;;;;;;;;6214368;23;20024;-91
2023/08/24 05:24:25;;;;;;;0.10;0.10;;;;;;;;;;6189752;23;20027;-92
2023/08/24 05:26:55;;;;;;;0.10;0.10;;;;;;;;;;6215150;23;20048;-91
2023/08/24 05:29:21;;;;;;;0.20;0.20;;;;;;;;;;6190452;23;20001;-91
2023/08/24 05:31:48;;;;;;;0.10;0.10;;;;;;;;;;6215124;23;20004;-90
2023/08/24 05:34:15;;;;;;;0.20;0.20;;;;;;;;;;6213625;23;20518;-91
2023/08/24 05:36:44;;;;;;;0.20;0.20;;;;;;;;;;6213231;23;20024;-90
2023/08/24 05:39:11;;;;;;;0.10;0.10;;;;;;;;;;6189812;23;20072;-92
2023/08/24 05:41:41;;;;;;;0.30;0.30;;;;;;;;;;6208734;23;20032;-91
2023/08/24 05:44:26;;;;;;;0.13;0.13;;;;;;;;;;6229062;22;20027;-91
2023/08/24 05:46:57;;;;;;;0.10;0.10;;;;;;;;;;6217104;23;20063;-93
2023/08/24 05:49:25;;;;;;;0.20;0.20;;;;;;;;;;6214952;23;20039;-92
2023/08/24 05:51:52;;;;;;;0.20;0.20;;;;;;;;;;6215058;23;20027;-90
2023/08/24 05:54:21;;;;;;;0.17;0.17;;;;;;;;;;6218011;23;20040;-91
2023/08/24 05:57:05;;;;;;;0.03;0.03;;;;;;;;;;6217987;23;20144;-91
2023/08/24 05:59:35;;;;;;;0.28;0.28;;;;;;;;;;6217928;23;20007;-92
2023/08/24 06:02:06;;;;;;;0.20;0.20;;;;;;;;;;6217843;23;20016;-92
2023/08/24 06:04:33;;;;;;;0.10;0.10;;;;;;;;;;6218033;23;20103;-90
2023/08/24 06:07:00;;;;;;;0.17;0.17;;;;;;;;;;6190813;23;20066;-92
2023/08/24 06:09:31;;;;;;;0.20;0.20;;;;;;;;;;6220497;23;20051;-92
2023/08/24 06:11:58;;;;;;;0.20;0.20;;;;;;;;;;6219056;23;20011;-92
2023/08/24 06:14:25;;;;;;;0.20;0.20;;;;;;;;;;6217552;23;20020;-92
2023/08/24 06:16:55;;;;;;;0.10;0.10;;;;;;;;;;6218793;23;20020;-91
2023/08/24 06:19:25;;;;;;;0.10;0.10;;;;;;;;;;6243076;23;20024;-89
2023/08/24 06:21:51;;;;;;;0.10;0.10;;;;;;;;;;6217199;23;20030;-87
2023/08/24 06:24:27;;;;;;;0.38;0.38;;;;;;;;;;6218676;23;20000;-89
2023/08/24 06:26:53;;;;;;;0.20;0.20;;;;;;;;;;6218277;23;20016;-88
2023/08/24 06:29:21;;;;;;;0.20;0.20;;;;;;;;;;6217685;23;20020;-88
2023/08/24 06:31:50;;;;;;;0.10;0.10;;;;;;;;;;6217780;23;20016;-88
2023/08/24 06:34:26;;;;;;;0.10;0.10;;;;;;;;;;6219189;23;20012;-88
2023/08/24 06:37:01;;;;;;;0.20;0.20;;;;;;;;;;6216113;23;20024;-88
2023/08/24 06:39:28;;;;;;;0.30;0.30;;;;;;;;;;6242651;23;20024;-88
2023/08/24 06:41:54;;;;;;;0.20;0.20;;;;;;;;;;6217711;23;20016;-89
2023/08/24 06:44:21;;;;;;;0.20;0.20;;;;;;;;;;6220068;23;20008;-89
2023/08/24 06:46:48;;;;;;;0.10;0.10;;;;;;;;;;6220567;23;20031;-88
2023/08/24 06:49:15;;;;;;;0.20;0.20;;;;;;;;;;6220752;23;20095;-89
2023/08/24 06:51:41;;;;;;;0.10;0.10;;;;;;;;;;6219286;23;20016;-89
2023/08/24 06:54:08;;;;;;;0.10;0.10;;;;;;;;;;6220380;23;20060;-89
2023/08/24 06:56:35;;;;;;;0.10;0.10;;;;;;;;;;6221595;23;20008;-89
2023/08/24 06:59:01;;;;;;;0.15;0.15;;;;;;;;;;6217266;23;20016;-89
2023/08/24 07:01:28;;;;;;;0.20;0.20;;;;;;;;;;6219107;23;20023;-89
2023/08/24 07:03:54;;;;;;;0.20;0.20;;;;;;;;;;6217095;23;20024;-89
2023/08/24 07:06:20;;;;;;;0.10;0.10;;;;;;;;;;6219461;23;20050;-90
2023/08/24 07:08:47;;;;;;;0.22;0.22;;;;;;;;;;6222031;23;20046;-88
2023/08/24 07:11:14;;;;;;;0.30;0.30;;;;;;;;;;6220736;23;20091;-88
2023/08/24 07:13:46;;;;;;;0.17;0.17;;;;;;;;;;6269855;23;20072;-90
2023/08/24 07:16:15;;;;;;;0.28;0.28;;;;;;;;;;6247017;23;20031;-88
2023/08/24 07:18:41;;;;;;;0.20;0.20;;;;;;;;;;6218582;23;20011;-88
2023/08/24 07:21:07;;;;;;;0.20;0.20;;;;;;;;;;6216644;23;20020;-88
2023/08/24 07:23:33;;;;;;;0.20;0.20;;;;;;;;;;6218375;23;20020;-88
2023/08/24 07:25:59;;;;;;;0.20;0.20;;;;;;;;;;6218084;23;20016;-89
2023/08/24 07:28:26;;;;;;;0.10;0.10;;;;;;;;;;6245512;23;20004;-88
2023/08/24 07:30:55;;;;;;;0.20;0.20;;;;;;;;;;6220629;23;20016;-88
2023/08/24 07:33:22;;;;;;;0.10;0.10;;;;;;;;;;6220165;23;20020;-89
2023/08/24 07:35:52;;;;;;;0.10;0.10;;;;;;;;;;6220534;23;20004;-88
2023/08/24 07:38:21;;;;;;;0.10;0.10;;;;;;;;;;6246567;23;20003;-91
2023/08/24 07:40:48;;;;;;;0.10;0.10;;;;;;;;;;6220967;23;20012;-90
2023/08/24 07:43:46;;;;;;;0.00;0.00;;;;;;;;;;6221257;23;20027;-89
2023/08/24 07:46:12;;;;;;;0.10;0.10;;;;;;;;;;6219749;23;20016;-88
2023/08/24 07:48:38;;;;;;;0.10;0.10;;;;;;;;;;6219747;23;20008;-89
2023/08/24 07:51:11;;;;;;;0.30;0.30;;;;;;;;;;6220441;23;20027;-88
2023/08/24 07:53:37;;;;;;;0.10;0.10;;;;;;;;;;6243444;23;20022;-89
2023/08/24 07:56:05;;;;;;;0.20;0.20;;;;;;;;;;6220848;23;20016;-88
2023/08/24 07:58:34;;;;;;;0.20;0.20;;;;;;;;;;6222871;23;20060;-89
2023/08/24 08:01:04;;;;;;;0.20;0.20;;;;;;;;;;6245200;23;20016;-88
2023/08/24 08:03:35;;;;;;;0.20;0.20;;;;;;;;;;6245312;23;20016;-88
2023/08/24 08:06:01;;;;;;;0.10;0.10;;;;;;;;;;6244152;22;20016;-88
2023/08/24 08:08:28;;;;;;;0.03;0.03;;;;;;;;;;6220942;22;20059;-89
2023/08/24 08:11:03;;;;;;;0.20;0.20;;;;;;;;;;6196283;23;20039;-87
2023/08/24 08:13:32;;;;;;;0.30;0.30;;;;;;;;;;6222996;23;20026;-88
2023/08/24 08:16:05;;;;;;;0.00;0.00;;;;;;;;;;6219298;23;20142;-88
2023/08/24 08:18:33;;;;;;;0.10;0.10;;;;;;;;;;6212368;23;20031;-88
2023/08/24 08:23:35;;;;;;;0.10;0.10;;;;;;;;;;6267978;22;20024;-88
2023/08/24 08:26:02;;;;;;;0.20;0.20;;;;;;;;;;6220986;23;20008;-89
2023/08/24 08:28:29;;;;;;;0.05;0.05;;;;;;;;;;6196110;23;20020;-89
2023/08/24 08:30:56;;;;;;;0.10;0.10;;;;;;;;;;6219767;22;20015;-89
2023/08/24 08:33:24;;;;;;;0.10;0.10;;;;;;;;;;6219919;23;20063;-89
2023/08/24 08:35:52;;;;;;;0.10;0.10;;;;;;;;;;6242248;22;20068;-89
2023/08/24 08:38:21;;;;;;;0.10;0.10;;;;;;;;;;6190007;23;20019;-88
2023/08/24 08:40:50;;;;;;;0.20;0.20;;;;;;;;;;6244420;22;20071;-89
2023/08/24 08:43:16;;;;;;;0.10;0.10;;;;;;;;;;6219786;23;20036;-89
2023/08/24 08:45:49;;;;;;;0.10;0.10;;;;;;;;;;6221351;23;20058;-89
2023/08/24 08:48:21;;;;;;;0.03;0.03;;;;;;;;;;6245740;22;20056;-89
2023/08/24 08:50:49;;;;;;;0.20;0.20;;;;;;;;;;6218923;23;20043;-88
2023/08/24 08:56:24;;;;;;;0.10;0.10;;;;;;;;;;6269824;22;20004;-89
2023/08/24 08:58:51;;;;;;;0.10;0.10;;;;;;;;;;6221072;23;20027;-87
2023/08/24 09:01:24;;;;;;;0.00;0.00;;;;;;;;;;6247417;22;20012;-88
2023/08/24 09:04:10;;;;;;;0.10;0.10;;;;;;;;;;6272628;23;20011;-88
2023/08/24 09:06:36;;;;;;;0.10;0.10;;;;;;;;;;6241444;22;20016;-88
2023/08/24 09:09:02;;;;;;;0.08;0.08;;;;;;;;;;6192360;23;20044;-87
2023/08/24 09:11:30;;;;;;;0.00;0.00;;;;;;;;;;6215567;23;20022;-90
2023/08/24 09:13:56;;;;;;;0.00;0.00;;;;;;;;;;6213160;23;20023;-88
2023/08/24 09:16:22;;;;;;;0.10;0.10;;;;;;;;;;6216402;22;20096;-88
2023/08/24 09:18:48;;;;;;;0.10;0.10;;;;;;;;;;6220544;23;20023;-87
2023/08/24 09:21:16;;;;;;;0.10;0.10;;;;;;;;;;6243018;23;20016;-87
2023/08/24 09:23:54;;;;;;;0.10;0.10;;;;;;;;;;6268972;23;20003;-88
2023/08/24 09:26:36;;;;;;;0.10;0.10;;;;;;;;;;6244990;23;20004;-88
2023/08/24 09:29:18;;;;;;;0.13;0.13;;;;;;;;;;6217718;23;20016;-88
2023/08/24 09:31:45;;;;;;;0.20;0.20;;;;;;;;;;6271139;22;20024;-88
2023/08/24 09:34:11;;;;;;;0.20;0.20;;;;;;;;;;6219692;23;20019;-89
2023/08/24 09:36:40;;;;;;;0.10;0.10;;;;;;;;;;6194007;23;20008;-88
2023/08/24 09:39:09;;;;;;;0.10;0.10;;;;;;;;;;6193591;23;20023;-87
2023/08/24 09:41:45;;;;;;;0.20;0.20;;;;;;;;;;6193125;23;20030;-87
2023/08/24 09:44:16;;;;;;;0.13;0.13;;;;;;;;;;6218951;23;20008;-88
2023/08/24 09:46:43;;;;;;;0.00;0.00;;;;;;;;;;6218407;23;20451;-89
2023/08/24 09:49:11;;;;;;;0.10;0.10;;;;;;;;;;6242483;22;20022;-88
2023/08/24 09:51:51;;;;;;;0.10;0.10;;;;;;;;;;6215737;23;20347;-87
2023/08/24 09:54:22;;;;;;;0.10;0.10;;;;;;;;;;6216122;23;20031;-87
2023/08/24 09:56:49;;;;;;;0.10;0.10;;;;;;;;;;6217258;23;20016;-88
2023/08/24 09:59:21;;;;;;;0.10;0.10;;;;;;;;;;6220178;23;20036;-86
2023/08/24 10:01:50;;;;;;;0.10;0.10;;;;;;;;;;6243197;23;20020;-87
2023/08/24 10:04:22;;;;;;;0.20;0.20;;;;;;;;;;6244818;23;20004;-88
2023/08/24 10:06:52;;;;;;;0.10;0.10;;;;;;;;;;6218459;23;20027;-88
2023/08/24 10:09:21;;;;;;;0.20;0.20;;;;;;;;;;6218341;23;20043;-88
2023/08/24 10:11:51;;;;;;;0.10;0.10;;;;;;;;;;6218897;23;20038;-87
2023/08/24 10:14:25;;;;;;;0.30;0.30;;;;;;;;;;6193939;23;20071;-86
2023/08/24 10:16:52;;;;;;;0.10;0.10;;;;;;;;;;6220431;23;20050;-87
2023/08/24 10:19:18;;;;;;;0.10;0.10;;;;;;;;;;6219856;23;20016;-88
2023/08/24 10:21:45;;;;;;;0.00;0.00;;;;;;;;;;6243924;23;20020;-87
2023/08/24 10:24:16;;;;;;;0.20;0.20;;;;;;;;;;6219163;22;20000;-87
2023/08/24 10:26:42;;;;;;;0.10;0.10;;;;;;;;;;6193882;23;20034;-87
2023/08/24 10:29:18;;;;;;;0.10;0.10;;;;;;;;;;6245978;23;20062;-87
2023/08/24 10:31:49;;;;;;;0.00;0.00;;;;;;;;;;6245341;23;20020;-87
2023/08/24 10:34:18;;;;;;;0.20;0.20;;;;;;;;;;6219581;23;20415;-88
2023/08/24 10:36:48;;;;;;;0.17;0.17;;;;;;;;;;6219160;23;20044;-86
2023/08/24 10:39:15;;;;;;;0.00;0.00;;;;;;;;;;6244581;23;20000;-88
2023/08/24 10:41:53;;;;;;;0.10;0.10;;;;;;;;;;6215995;23;20032;-88
2023/08/24 10:44:24;;;;;;;0.08;0.08;;;;;;;;;;6219923;23;20035;-89
2023/08/24 10:47:09;;;;;;;0.10;0.10;;;;;;;;;;6219897;23;20035;-87
2023/08/24 10:49:38;;;;;;;0.20;0.20;;;;;;;;;;6244174;23;20012;-86
2023/08/24 10:52:21;;;;;;;0.05;0.05;;;;;;;;;;6218239;23;20658;-87
2023/08/24 10:54:54;;;;;;;0.20;0.20;;;;;;;;;;6218526;23;20023;-88
2023/08/24 10:57:24;;;;;;;0.00;0.00;;;;;;;;;;6219097;23;20091;-87
2023/08/24 11:00:06;;;;;;;0.17;0.17;;;;;;;;;;6218889;23;20035;-89
2023/08/24 11:02:48;;;;;;;0.17;0.17;;;;;;;;;;6241821;23;20059;-87
2023/08/24 11:05:32;;;;;;;0.10;0.10;;;;;;;;;;6216805;23;20043;-87
2023/08/24 11:08:02;;;;;;;0.15;0.15;;;;;;;;;;6241867;23;20051;-87
2023/08/24 11:10:38;;;;;;;0.20;0.20;;;;;;;;;;6219599;23;20007;-87
2023/08/24 11:13:04;;;;;;;0.10;0.10;;;;;;;;;;6217296;23;20020;-87
2023/08/24 11:15:33;;;;;;;0.20;0.20;;;;;;;;;;6217283;23;20044;-87
2023/08/24 11:18:13;;;;;;;0.10;0.10;;;;;;;;;;6218313;23;20460;-86
2023/08/24 11:20:53;;;;;;;0.10;0.10;;;;;;;;;;6242779;23;20020;-87
2023/08/24 11:23:20;;;;;;;0.10;0.10;;;;;;;;;;6217637;23;20508;-87
2023/08/24 11:25:49;;;;;;;0.20;0.20;;;;;;;;;;6219189;23;20023;-87
2023/08/24 11:28:20;;;;;;;0.00;0.00;;;;;;;;;;6219375;23;20022;-87
2023/08/24 11:30:46;;;;;;;0.00;0.00;;;;;;;;;;6192764;23;20020;-88
2023/08/24 11:33:14;;;;;;;0.15;0.15;;;;;;;;;;6217110;23;20004;-86
2023/08/24 11:35:44;;;;;;;0.10;0.10;;;;;;;;;;6218094;23;20020;-86
2023/08/24 11:38:10;;;;;;;0.10;0.10;;;;;;;;;;6216241;23;20031;-87
2023/08/24 11:40:37;;;;;;;0.10;0.10;;;;;;;;;;6242561;23;20010;-88
2023/08/24 11:43:03;;;;;;;0.10;0.10;;;;;;;;;;6219089;23;20020;-86
2023/08/24 11:45:33;;;;;;;0.10;0.10;;;;;;;;;;6218174;23;20035;-87
2023/08/24 11:48:04;;;;;;;0.17;0.17;;;;;;;;;;6217567;23;20023;-87
2023/08/24 11:50:30;;;;;;;0.08;0.08;;;;;;;;;;6216820;23;20016;-87
2023/08/24 11:52:57;;;;;;;0.10;0.10;;;;;;;;;;6214970;23;20012;-88
2023/08/24 11:55:26;;;;;;;0.10;0.10;;;;;;;;;;6216545;23;20013;-88
2023/08/24 11:57:52;;;;;;;0.10;0.10;;;;;;;;;;6218697;23;20076;-87
2023/08/24 12:00:22;;;;;;;0.10;0.10;;;;;;;;;;6218467;23;20081;-88
2023/08/24 12:02:50;;;;;;;0.03;0.03;;;;;;;;;;6218365;23;20031;-87
2023/08/24 12:05:29;;;;;;;0.20;0.20;;;;;;;;;;6269845;23;20022;-87
2023/08/24 12:07:57;;;;;;;0.03;0.03;;;;;;;;;;6244408;23;20004;-86
2023/08/24 12:10:23;;;;;;;0.10;0.10;;;;;;;;;;6218258;23;20002;-88
2023/08/24 12:13:01;;;;;;;0.10;0.10;;;;;;;;;;6241590;22;20020;-88
2023/08/24 12:15:28;;;;;;;0.10;0.10;;;;;;;;;;6244150;23;20072;-88
2023/08/24 12:17:57;;;;;;;0.22;0.22;;;;;;;;;;6244526;23;20120;-88
2023/08/24 12:20:24;;;;;;;0.10;0.10;;;;;;;;;;6216966;23;20016;-88
2023/08/24 12:22:55;;;;;;;0.30;0.30;;;;;;;;;;6218643;23;20019;-89
2023/08/24 12:25:24;;;;;;;0.10;0.10;;;;;;;;;;6192167;23;20027;-87
2023/08/24 12:27:51;;;;;;;0.10;0.10;;;;;;;;;;6218488;23;20049;-88
2023/08/24 12:30:19;;;;;;;0.20;0.20;;;;;;;;;;6217849;23;20081;-88
2023/08/24 12:32:52;;;;;;;0.10;0.10;;;;;;;;;;6241821;23;20001;-87
2023/08/24 12:35:18;;;;;;;0.10;0.10;;;;;;;;;;6217265;23;20028;-87
2023/08/24 12:37:45;;;;;;;0.03;0.03;;;;;;;;;;6215184;23;20016;-88
2023/08/24 12:40:13;;;;;;;0.20;0.20;;;;;;;;;;6217112;23;20000;-88
2023/08/24 12:42:39;;;;;;;0.20;0.20;;;;;;;;;;6218988;23;20023;-88
2023/08/24 12:45:05;;;;;;;0.00;0.00;;;;;;;;;;6218217;23;20068;-87
2023/08/24 12:47:46;;;;;;;0.10;0.10;;;;;;;;;;6219441;23;20019;-88
2023/08/24 12:50:12;;;;;;;0.10;0.10;;;;;;;;;;6216828;23;20020;-88
2023/08/24 12:52:38;;;;;;;0.08;0.08;;;;;;;;;;6214737;23;20463;-88
2023/08/24 12:55:05;;;;;;;0.10;0.10;;;;;;;;;;6210372;23;20017;-88
2023/08/24 12:57:39;;;;;;;0.10;0.10;;;;;;;;;;6208265;23;20042;-87
2023/08/24 13:00:06;;;;;;;0.10;0.10;;;;;;;;;;6207271;23;20000;-87
2023/08/24 13:02:34;;;;;;;0.00;0.00;;;;;;;;;;6203465;23;20012;-87
2023/08/24 13:05:04;;;;;;;0.03;0.03;;;;;;;;;;6206786;23;20020;-86
2023/08/24 13:07:30;;;;;;;0.47;0.47;;;;;;;;;;6210022;23;20020;-89
2023/08/24 13:09:56;;;;;;;0.00;0.00;;;;;;;;;;6215669;23;20071;-87
2023/08/24 13:12:22;;;;;;;0.10;0.10;;;;;;;;;;6212161;23;20046;-88
2023/08/24 13:14:52;;;;;;;0.03;0.03;;;;;;;;;;6213021;23;20496;-87
2023/08/24 13:17:18;;;;;;;0.10;0.10;;;;;;;;;;6211534;23;20031;-87
2023/08/24 13:19:45;;;;;;;0.13;0.13;;;;;;;;;;6215922;23;20008;-88
2023/08/24 13:22:11;;;;;;;0.05;0.05;;;;;;;;;;6215152;23;20023;-87
2023/08/24 13:24:39;;;;;;;0.10;0.10;;;;;;;;;;6216590;23;20004;-87
2023/08/24 13:27:10;;;;;;;0.10;0.10;;;;;;;;;;6215868;23;20034;-89
2023/08/24 13:29:37;;;;;;;0.10;0.10;;;;;;;;;;6218298;23;20047;-86
2023/08/24 13:32:04;;;;;;;0.20;0.20;;;;;;;;;;6216529;23;20078;-87
2023/08/24 13:34:31;;;;;;;0.10;0.10;;;;;;;;;;6216522;23;20027;-88
2023/08/24 13:36:58;;;;;;;0.10;0.10;;;;;;;;;;6216925;23;20007;-87
2023/08/24 13:39:24;;;;;;;0.10;0.10;;;;;;;;;;6192965;23;20051;-88
2023/08/24 13:41:53;;;;;;;0.05;0.05;;;;;;;;;;6216219;23;20016;-87
2023/08/24 13:44:29;;;;;;;0.17;0.17;;;;;;;;;;6237651;23;20016;-87
2023/08/24 13:46:56;;;;;;;0.08;0.08;;;;;;;;;;6217318;23;20016;-86
2023/08/24 13:49:22;;;;;;;0.20;0.20;;;;;;;;;;6218288;23;20047;-86
2023/08/24 13:51:48;;;;;;;0.20;0.20;;;;;;;;;;6217748;23;20058;-88
2023/08/24 13:54:18;;;;;;;0.00;0.00;;;;;;;;;;6217821;23;20058;-84
2023/08/24 13:56:46;;;;;;;0.10;0.10;;;;;;;;;;6216604;23;20044;-87
2023/08/24 13:59:15;;;;;;;0.00;0.00;;;;;;;;;;6243308;23;20012;-87
2023/08/24 14:01:42;;;;;;;0.10;0.10;;;;;;;;;;6242346;23;20012;-87
2023/08/24 14:04:10;;;;;;;0.10;0.10;;;;;;;;;;6243062;23;20016;-87
2023/08/24 14:06:36;;;;;;;0.05;0.05;;;;;;;;;;6241645;23;20004;-87
2023/08/24 14:09:05;;;;;;;0.08;0.08;;;;;;;;;;6219696;23;20027;-86
2023/08/24 14:11:32;;;;;;;0.13;0.13;;;;;;;;;;6192900;23;20010;-86
2023/08/24 14:13:58;;;;;;;0.00;0.00;;;;;;;;;;6217584;23;20044;-87
2023/08/24 14:16:25;;;;;;;0.05;0.05;;;;;;;;;;6192958;23;20091;-87
2023/08/24 14:18:54;;;;;;;0.10;0.10;;;;;;;;;;6195556;23;20015;-86
2023/08/24 14:21:20;;;;;;;0.10;0.10;;;;;;;;;;6239629;22;20027;-86
2023/08/24 14:23:47;;;;;;;0.05;0.05;;;;;;;;;;6217930;23;20044;-87
2023/08/24 14:26:15;;;;;;;0.10;0.10;;;;;;;;;;6217092;23;20020;-86
2023/08/24 14:28:55;;;;;;;0.10;0.10;;;;;;;;;;6195299;23;20027;-86
2023/08/24 14:31:28;;;;;;;0.00;0.00;;;;;;;;;;6217309;23;20020;-88
2023/08/24 14:34:04;;;;;;;0.10;0.10;;;;;;;;;;6269931;23;20024;-87
2023/08/24 14:36:31;;;;;;;0.05;0.05;;;;;;;;;;6239515;23;20043;-86
2023/08/24 14:38:59;;;;;;;0.00;0.00;;;;;;;;;;6214979;22;20012;-87
2023/08/24 14:41:48;;;;;;;0.20;0.20;;;;;;;;;;6216295;23;20048;-87
2023/08/24 14:44:17;;;;;;;0.00;0.00;;;;;;;;;;6243945;23;20009;-87
2023/08/24 14:46:44;;;;;;;0.10;0.10;;;;;;;;;;6217128;23;20099;-88
2023/08/24 14:49:10;;;;;;;0.10;0.10;;;;;;;;;;6218054;23;20020;-88
2023/08/24 14:51:36;;;;;;;0.10;0.10;;;;;;;;;;6216984;23;20011;-88
2023/08/24 14:54:02;;;;;;;0.10;0.10;;;;;;;;;;6243988;23;20042;-87
2023/08/24 14:56:29;;;;;;;0.10;0.10;;;;;;;;;;6218498;23;20043;-88
2023/08/24 14:58:58;;;;;;;0.10;0.10;;;;;;;;;;6219561;23;20020;-87
2023/08/24 15:01:36;;;;;;;0.20;0.20;;;;;;;;;;6243887;23;20035;-87
2023/08/24 15:04:02;;;;;;;0.00;0.00;;;;;;;;;;6219063;23;20043;-87
2023/08/24 15:06:32;;;;;;;0.00;0.00;;;;;;;;;;6265539;23;20002;-87
2023/08/24 15:08:59;;;;;;;0.03;0.03;;;;;;;;;;6219198;23;20016;-88
2023/08/24 15:11:25;;;;;;;0.10;0.10;;;;;;;;;;6221728;23;20007;-86
2023/08/24 15:13:54;;;;;;;0.10;0.10;;;;;;;;;;6218440;23;20019;-88